Fairbanks, AK

08:42 PM AKDT die 23o August, anno 2017 (GMT -0800)
Townsite | | Change Station

Elev 446 ft 64.84 °N, 147.74 °W | Updated 4 minutes ago

Aequaliter Nubila
Aequaliter Nubila
58.8 °F
Feels Like 58.8 °F
N
0.0
Ventus Variabilis Ventus from Eurus
Gusts 0.0 mph

Hodie
High -- | Low -- °F
--% Chance of Precip.
Yesterday
High -- | Low -- °F
Precip. -- in
Pressio 29.55 in
Visibilitas 9.0 milia passuum
Clouds Plerumque Nubila 7000 ft
Aequaliter Nubila 8500 ft
Frigus in quo Ros apparet 52 °F
Umor 77%
Rainfall 0.00 in
Snow Depth Not available.
6:04 AM 9:40 PM
Waxing Crescent, 7% visible
SPECI PAFB 240417Z 06006KT 9SM -RA BKN070 OVC085 15/10 A2954 RMK AO2A RAB17 SLP006
Pressio 29.55 in
Visibilitas 9.0 milia passuum
Clouds Plerumque Nubila 7000 ft
Aequaliter Nubila 8500 ft
Frigus in quo Ros apparet 52 °F
Umor 77%
Rainfall 0.00 in
Snow Depth Not available.
6:04 AM 9:40 PM
Waxing Crescent, 7% visible
SPECI PAFB 240417Z 06006KT 9SM -RA BKN070 OVC085 15/10 A2954 RMK AO2A RAB17 SLP006

Get Severe Weather Alerts

Thanks for signing up!

Be on the lookout for a verification email in your inbox.

You'll start receiving the daily forecast at 6 AM.

×

10-Day Weather Forecast

Almanac

Astronomy

Aug. 23, 2017 Rise Set
Actual Time
Civil Twilight
Nautical Twilight
Astronomical Twilight
Moon
Length Of Visible Light
Length of Day
Tomorrow will be .
, % of the Moon is Illuminated

Today's Extremes

State Highs State Lows

Community

WunderPhotos

Category 6

Welcome to Category 6. This is the collective home for Weather Underground's featured writeups by Dr. Jeff Masters (right), Bob Henson (left), Chris Burt, and other regular contributors.

Nearby

Air Quality

  Air Quality AQ Index Pollutant
Not available.

Snow Depth

Station Depth Elevation

Earthquake Activity

City Distance Mag. Time & Date
Minimum magnitude displayed is 2.5.

Coastal Water Temperatures

Locus Calor

Stations

Nearby Weather Stations

Station Location Temp Frigus Venti Frigus in quo Ros apparet Umor Ventus Precip. Elev Renovata Type
                   

Watches & Warnings

There are currently no watches in effect.